sensor_id;sensor_type;location;lat;lon;timestamp;temperature;humidity
59313;DHT22;45084;51.486;7.366;2024-03-07T00:00:13;1.70;99.90
59313;DHT22;45084;51.486;7.366;2024-03-07T00:02:49;1.70;99.90
59313;DHT22;45084;51.486;7.366;2024-03-07T00:05:19;1.70;99.90
59313;DHT22;45084;51.486;7.366;2024-03-07T00:07:48;1.60;99.90
59313;DHT22;45084;51.486;7.366;2024-03-07T00:10:14;1.60;99.90
59313;DHT22;45084;51.486;7.366;2024-03-07T00:12:44;1.60;99.90
59313;DHT22;45084;51.486;7.366;2024-03-07T00:15:12;1.60;99.90
59313;DHT22;45084;51.486;7.366;2024-03-07T00:17:38;1.60;99.90
59313;DHT22;45084;51.486;7.366;2024-03-07T00:20:05;1.50;99.90
59313;DHT22;45084;51.486;7.366;2024-03-07T00:22:37;1.50;99.90
59313;DHT22;45084;51.486;7.366;2024-03-07T00:25:04;1.50;99.90
59313;DHT22;45084;51.486;7.366;2024-03-07T00:27:36;1.40;99.90
59313;DHT22;45084;51.486;7.366;2024-03-07T00:30:02;1.40;99.90
59313;DHT22;45084;51.486;7.366;2024-03-07T00:32:33;1.40;99.90
59313;DHT22;45084;51.486;7.366;2024-03-07T00:35:02;1.40;99.90
59313;DHT22;45084;51.486;7.366;2024-03-07T00:37:30;1.40;99.90
59313;DHT22;45084;51.486;7.366;2024-03-07T00:39:57;1.40;99.90
59313;DHT22;45084;51.486;7.366;2024-03-07T00:42:23;1.40;99.90
59313;DHT22;45084;51.486;7.366;2024-03-07T00:44:52;1.40;99.90
59313;DHT22;45084;51.486;7.366;2024-03-07T00:47:17;1.40;99.90
59313;DHT22;45084;51.486;7.366;2024-03-07T00:49:45;1.30;99.90
59313;DHT22;45084;51.486;7.366;2024-03-07T00:52:15;1.30;99.90
59313;DHT22;45084;51.486;7.366;2024-03-07T00:54:41;1.30;99.90
59313;DHT22;45084;51.486;7.366;2024-03-07T00:57:08;1.20;99.90
59313;DHT22;45084;51.486;7.366;2024-03-07T00:59:35;1.20;99.90
59313;DHT22;45084;51.486;7.366;2024-03-07T01:02:01;1.20;99.90
59313;DHT22;45084;51.486;7.366;2024-03-07T01:04:30;1.10;99.90
59313;DHT22;45084;51.486;7.366;2024-03-07T01:06:58;1.10;99.90
59313;DHT22;45084;51.486;7.366;2024-03-07T01:09:26;1.10;99.90
59313;DHT22;45084;51.486;7.366;2024-03-07T01:11:56;1.10;99.90
59313;DHT22;45084;51.486;7.366;2024-03-07T01:14:22;1.00;99.90
59313;DHT22;45084;51.486;7.366;2024-03-07T01:16:48;1.00;99.90
59313;DHT22;45084;51.486;7.366;2024-03-07T01:19:14;1.00;99.90
59313;DHT22;45084;51.486;7.366;2024-03-07T01:21:40;1.00;99.90
59313;DHT22;45084;51.486;7.366;2024-03-07T01:24:07;1.10;99.90
59313;DHT22;45084;51.486;7.366;2024-03-07T01:26:34;1.00;99.90
59313;DHT22;45084;51.486;7.366;2024-03-07T01:29:03;1.00;99.90
59313;DHT22;45084;51.486;7.366;2024-03-07T01:31:29;0.90;99.90
59313;DHT22;45084;51.486;7.366;2024-03-07T01:33:55;0.90;99.90
59313;DHT22;45084;51.486;7.366;2024-03-07T01:36:21;0.90;99.90
59313;DHT22;45084;51.486;7.366;2024-03-07T01:38:46;0.90;99.90
59313;DHT22;45084;51.486;7.366;2024-03-07T01:41:13;0.90;99.90
59313;DHT22;45084;51.486;7.366;2024-03-07T01:43:40;0.90;99.90
59313;DHT22;45084;51.486;7.366;2024-03-07T01:46:06;0.90;99.90
59313;DHT22;45084;51.486;7.366;2024-03-07T01:48:35;0.80;99.90
59313;DHT22;45084;51.486;7.366;2024-03-07T01:51:01;0.80;99.90
59313;DHT22;45084;51.486;7.366;2024-03-07T01:53:33;0.80;99.90
59313;DHT22;45084;51.486;7.366;2024-03-07T01:56:00;0.80;99.90
59313;DHT22;45084;51.486;7.366;2024-03-07T01:58:29;0.80;99.90
59313;DHT22;45084;51.486;7.366;2024-03-07T02:00:55;0.70;99.90
59313;DHT22;45084;51.486;7.366;2024-03-07T02:03:20;0.70;99.90
59313;DHT22;45084;51.486;7.366;2024-03-07T02:05:46;0.70;99.90
59313;DHT22;45084;51.486;7.366;2024-03-07T02:08:12;0.70;99.90
59313;DHT22;45084;51.486;7.366;2024-03-07T02:10:38;0.70;99.90
59313;DHT22;45084;51.486;7.366;2024-03-07T02:13:05;0.60;99.90
59313;DHT22;45084;51.486;7.366;2024-03-07T02:15:34;0.60;99.90
59313;DHT22;45084;51.486;7.366;2024-03-07T02:18:03;0.60;99.90
59313;DHT22;45084;51.486;7.366;2024-03-07T02:20:29;0.60;99.90
59313;DHT22;45084;51.486;7.366;2024-03-07T02:22:55;0.60;99.90
59313;DHT22;45084;51.486;7.366;2024-03-07T02:25:22;0.60;99.90
59313;DHT22;45084;51.486;7.366;2024-03-07T02:27:48;0.60;99.90
59313;DHT22;45084;51.486;7.366;2024-03-07T02:30:15;0.50;99.90
59313;DHT22;45084;51.486;7.366;2024-03-07T02:32:43;0.50;99.90
59313;DHT22;45084;51.486;7.366;2024-03-07T02:35:16;0.50;99.90
59313;DHT22;45084;51.486;7.366;2024-03-07T02:37:44;0.50;99.90
59313;DHT22;45084;51.486;7.366;2024-03-07T02:40:14;0.50;99.90
59313;DHT22;45084;51.486;7.366;2024-03-07T02:42:40;0.40;99.90
59313;DHT22;45084;51.486;7.366;2024-03-07T02:45:07;0.40;99.90
59313;DHT22;45084;51.486;7.366;2024-03-07T02:47:33;0.40;99.90
59313;DHT22;45084;51.486;7.366;2024-03-07T02:49:58;0.30;99.90
59313;DHT22;45084;51.486;7.366;2024-03-07T02:52:24;0.30;99.90
59313;DHT22;45084;51.486;7.366;2024-03-07T02:54:52;0.30;99.90
59313;DHT22;45084;51.486;7.366;2024-03-07T02:57:18;0.40;99.90
59313;DHT22;45084;51.486;7.366;2024-03-07T02:59:44;0.30;99.90
59313;DHT22;45084;51.486;7.366;2024-03-07T03:02:10;0.30;99.90
59313;DHT22;45084;51.486;7.366;2024-03-07T03:04:39;0.30;99.90
59313;DHT22;45084;51.486;7.366;2024-03-07T03:07:07;0.30;99.90
59313;DHT22;45084;51.486;7.366;2024-03-07T03:09:34;0.20;99.90
59313;DHT22;45084;51.486;7.366;2024-03-07T03:12:02;0.20;99.90
59313;DHT22;45084;51.486;7.366;2024-03-07T03:14:28;0.20;99.90
59313;DHT22;45084;51.486;7.366;2024-03-07T03:16:55;0.20;99.90
59313;DHT22;45084;51.486;7.366;2024-03-07T03:19:21;0.20;99.90
59313;DHT22;45084;51.486;7.366;2024-03-07T03:21:49;0.20;99.90
59313;DHT22;45084;51.486;7.366;2024-03-07T03:24:15;0.20;99.90
59313;DHT22;45084;51.486;7.366;2024-03-07T03:26:40;0.10;99.90
59313;DHT22;45084;51.486;7.366;2024-03-07T03:29:07;0.20;99.90
59313;DHT22;45084;51.486;7.366;2024-03-07T03:31:35;0.10;99.90
59313;DHT22;45084;51.486;7.366;2024-03-07T03:34:01;0.10;99.90
59313;DHT22;45084;51.486;7.366;2024-03-07T03:36:27;0.10;99.90
59313;DHT22;45084;51.486;7.366;2024-03-07T03:38:52;0.00;99.90
59313;DHT22;45084;51.486;7.366;2024-03-07T03:41:18;-0.10;99.90
59313;DHT22;45084;51.486;7.366;2024-03-07T03:43:47;0.00;99.90
59313;DHT22;45084;51.486;7.366;2024-03-07T03:46:16;-0.10;99.90
59313;DHT22;45084;51.486;7.366;2024-03-07T03:48:44;-0.10;99.90
59313;DHT22;45084;51.486;7.366;2024-03-07T03:51:10;-0.10;99.90
59313;DHT22;45084;51.486;7.366;2024-03-07T03:53:38;-0.10;99.90
59313;DHT22;45084;51.486;7.366;2024-03-07T03:56:05;-0.10;99.90
59313;DHT22;45084;51.486;7.366;2024-03-07T03:58:31;-0.10;99.90
59313;DHT22;45084;51.486;7.366;2024-03-07T04:00:57;-0.20;99.90
59313;DHT22;45084;51.486;7.366;2024-03-07T04:03:25;-0.20;99.90
59313;DHT22;45084;51.486;7.366;2024-03-07T04:05:54;-0.20;99.90
59313;DHT22;45084;51.486;7.366;2024-03-07T04:08:20;-0.30;99.90
59313;DHT22;45084;51.486;7.366;2024-03-07T04:10:47;-0.30;99.90
59313;DHT22;45084;51.486;7.366;2024-03-07T04:13:15;-0.20;99.90
59313;DHT22;45084;51.486;7.366;2024-03-07T04:15:40;-0.30;99.90
59313;DHT22;45084;51.486;7.366;2024-03-07T04:18:07;-0.30;99.90
59313;DHT22;45084;51.486;7.366;2024-03-07T04:20:32;-0.30;99.90
59313;DHT22;45084;51.486;7.366;2024-03-07T04:22:58;-0.30;99.90
59313;DHT22;45084;51.486;7.366;2024-03-07T04:25:24;-0.40;99.90
59313;DHT22;45084;51.486;7.366;2024-03-07T04:27:50;-0.30;99.90
59313;DHT22;45084;51.486;7.366;2024-03-07T04:30:18;-0.40;99.90
59313;DHT22;45084;51.486;7.366;2024-03-07T04:32:43;-0.40;99.90
59313;DHT22;45084;51.486;7.366;2024-03-07T04:35:09;-0.50;99.90
59313;DHT22;45084;51.486;7.366;2024-03-07T04:37:37;-0.50;99.90
59313;DHT22;45084;51.486;7.366;2024-03-07T04:40:13;-0.60;99.90
59313;DHT22;45084;51.486;7.366;2024-03-07T04:42:46;-0.50;99.90
59313;DHT22;45084;51.486;7.366;2024-03-07T04:45:15;-0.50;99.90
59313;DHT22;45084;51.486;7.366;2024-03-07T04:47:42;-0.40;99.90
59313;DHT22;45084;51.486;7.366;2024-03-07T04:50:10;-0.40;99.90
59313;DHT22;45084;51.486;7.366;2024-03-07T04:52:39;-0.40;99.90
59313;DHT22;45084;51.486;7.366;2024-03-07T04:55:09;-0.30;99.90
59313;DHT22;45084;51.486;7.366;2024-03-07T04:57:37;-0.20;99.90
59313;DHT22;45084;51.486;7.366;2024-03-07T05:00:10;-0.20;99.90
59313;DHT22;45084;51.486;7.366;2024-03-07T05:02:40;-0.10;99.90
59313;DHT22;45084;51.486;7.366;2024-03-07T05:05:06;-0.10;99.90
59313;DHT22;45084;51.486;7.366;2024-03-07T05:07:31;0.00;99.90
59313;DHT22;45084;51.486;7.366;2024-03-07T05:09:57;-0.10;99.90
59313;DHT22;45084;51.486;7.366;2024-03-07T05:12:22;0.20;99.90
59313;DHT22;45084;51.486;7.366;2024-03-07T05:14:49;0.30;99.90
59313;DHT22;45084;51.486;7.366;2024-03-07T05:17:15;0.30;99.90
59313;DHT22;45084;51.486;7.366;2024-03-07T05:19:40;0.40;99.90
59313;DHT22;45084;51.486;7.366;2024-03-07T05:22:07;0.40;99.90
59313;DHT22;45084;51.486;7.366;2024-03-07T05:24:35;0.30;99.90
59313;DHT22;45084;51.486;7.366;2024-03-07T05:27:01;0.10;99.90
59313;DHT22;45084;51.486;7.366;2024-03-07T05:29:28;0.20;99.90
59313;DHT22;45084;51.486;7.366;2024-03-07T05:31:55;0.10;99.90
59313;DHT22;45084;51.486;7.366;2024-03-07T05:34:22;0.00;99.90
59313;DHT22;45084;51.486;7.366;2024-03-07T05:36:54;-0.10;99.90
59313;DHT22;45084;51.486;7.366;2024-03-07T05:39:19;-0.10;99.90
59313;DHT22;45084;51.486;7.366;2024-03-07T05:41:46;-0.30;99.90
59313;DHT22;45084;51.486;7.366;2024-03-07T05:44:15;-0.20;99.90
59313;DHT22;45084;51.486;7.366;2024-03-07T05:46:46;-0.30;99.90
59313;DHT22;45084;51.486;7.366;2024-03-07T05:49:15;-0.40;99.90
59313;DHT22;45084;51.486;7.366;2024-03-07T05:51:46;-0.40;99.90
59313;DHT22;45084;51.486;7.366;2024-03-07T05:54:13;-0.50;99.90
59313;DHT22;45084;51.486;7.366;2024-03-07T05:56:42;-0.60;99.90
59313;DHT22;45084;51.486;7.366;2024-03-07T05:59:11;-0.60;99.90
59313;DHT22;45084;51.486;7.366;2024-03-07T06:01:40;-0.60;99.90
59313;DHT22;45084;51.486;7.366;2024-03-07T06:04:09;-0.60;99.90
59313;DHT22;45084;51.486;7.366;2024-03-07T06:06:39;-0.60;99.90
59313;DHT22;45084;51.486;7.366;2024-03-07T06:09:09;-0.60;99.90
59313;DHT22;45084;51.486;7.366;2024-03-07T06:11:38;-0.60;99.90
59313;DHT22;45084;51.486;7.366;2024-03-07T06:14:10;-0.60;99.90
59313;DHT22;45084;51.486;7.366;2024-03-07T06:16:42;-0.60;99.90
59313;DHT22;45084;51.486;7.366;2024-03-07T06:19:09;-0.60;99.90
59313;DHT22;45084;51.486;7.366;2024-03-07T06:21:39;-0.60;99.90
59313;DHT22;45084;51.486;7.366;2024-03-07T06:24:08;-0.50;99.90
59313;DHT22;45084;51.486;7.366;2024-03-07T06:26:41;-0.50;99.90
59313;DHT22;45084;51.486;7.366;2024-03-07T06:29:14;-0.50;99.90
59313;DHT22;45084;51.486;7.366;2024-03-07T06:31:43;-0.50;99.90
59313;DHT22;45084;51.486;7.366;2024-03-07T06:34:14;-0.50;99.90
59313;DHT22;45084;51.486;7.366;2024-03-07T06:36:43;-0.50;99.90
59313;DHT22;45084;51.486;7.366;2024-03-07T06:39:10;-0.40;99.90
59313;DHT22;45084;51.486;7.366;2024-03-07T06:41:39;-0.30;99.90
59313;DHT22;45084;51.486;7.366;2024-03-07T06:44:07;-0.30;99.90
59313;DHT22;45084;51.486;7.366;2024-03-07T06:46:38;-0.30;99.90
59313;DHT22;45084;51.486;7.366;2024-03-07T06:49:04;-0.20;99.90
59313;DHT22;45084;51.486;7.366;2024-03-07T06:51:36;-0.10;99.90
59313;DHT22;45084;51.486;7.366;2024-03-07T06:54:03;0.00;99.90
59313;DHT22;45084;51.486;7.366;2024-03-07T06:56:30;0.00;99.90
59313;DHT22;45084;51.486;7.366;2024-03-07T06:58:56;0.00;99.90
59313;DHT22;45084;51.486;7.366;2024-03-07T07:01:22;0.10;99.90
59313;DHT22;45084;51.486;7.366;2024-03-07T07:03:52;0.10;99.90
59313;DHT22;45084;51.486;7.366;2024-03-07T07:06:23;0.30;99.90
59313;DHT22;45084;51.486;7.366;2024-03-07T07:08:52;0.60;99.90
59313;DHT22;45084;51.486;7.366;2024-03-07T07:11:19;1.00;99.90
59313;DHT22;45084;51.486;7.366;2024-03-07T07:13:47;1.10;99.90
59313;DHT22;45084;51.486;7.366;2024-03-07T07:16:16;1.20;99.90
59313;DHT22;45084;51.486;7.366;2024-03-07T07:18:47;1.30;99.90
59313;DHT22;45084;51.486;7.366;2024-03-07T07:21:14;1.50;99.90
59313;DHT22;45084;51.486;7.366;2024-03-07T07:23:44;1.60;99.90
59313;DHT22;45084;51.486;7.366;2024-03-07T07:26:09;1.70;99.90
59313;DHT22;45084;51.486;7.366;2024-03-07T07:28:35;1.80;99.90
59313;DHT22;45084;51.486;7.366;2024-03-07T07:31:04;1.80;99.90
59313;DHT22;45084;51.486;7.366;2024-03-07T07:33:33;1.90;99.90
59313;DHT22;45084;51.486;7.366;2024-03-07T07:36:00;2.00;99.90
59313;DHT22;45084;51.486;7.366;2024-03-07T07:38:28;2.10;99.90
59313;DHT22;45084;51.486;7.366;2024-03-07T07:40:56;2.30;99.90
59313;DHT22;45084;51.486;7.366;2024-03-07T07:43:22;2.50;99.90
59313;DHT22;45084;51.486;7.366;2024-03-07T07:45:51;2.70;99.90
59313;DHT22;45084;51.486;7.366;2024-03-07T07:48:20;2.70;99.90
59313;DHT22;45084;51.486;7.366;2024-03-07T07:50:49;2.70;99.90
59313;DHT22;45084;51.486;7.366;2024-03-07T07:53:19;2.80;99.90
59313;DHT22;45084;51.486;7.366;2024-03-07T07:55:49;2.80;99.90
59313;DHT22;45084;51.486;7.366;2024-03-07T07:58:17;2.90;99.90
59313;DHT22;45084;51.486;7.366;2024-03-07T08:00:44;3.00;99.90
59313;DHT22;45084;51.486;7.366;2024-03-07T08:03:11;3.10;99.90
59313;DHT22;45084;51.486;7.366;2024-03-07T08:05:39;3.30;99.90
59313;DHT22;45084;51.486;7.366;2024-03-07T08:08:10;3.50;99.90
59313;DHT22;45084;51.486;7.366;2024-03-07T08:10:40;3.60;99.90
59313;DHT22;45084;51.486;7.366;2024-03-07T08:13:12;3.70;99.90
59313;DHT22;45084;51.486;7.366;2024-03-07T08:15:42;3.90;99.90
59313;DHT22;45084;51.486;7.366;2024-03-07T08:18:11;4.10;99.90
59313;DHT22;45084;51.486;7.366;2024-03-07T08:20:39;4.10;99.90
59313;DHT22;45084;51.486;7.366;2024-03-07T08:23:06;4.00;99.90
59313;DHT22;45084;51.486;7.366;2024-03-07T08:25:37;4.00;99.90
59313;DHT22;45084;51.486;7.366;2024-03-07T08:28:09;4.00;99.90
59313;DHT22;45084;51.486;7.366;2024-03-07T08:30:37;3.90;99.90
59313;DHT22;45084;51.486;7.366;2024-03-07T08:33:05;4.00;99.90
59313;DHT22;45084;51.486;7.366;2024-03-07T08:35:33;3.90;99.90
59313;DHT22;45084;51.486;7.366;2024-03-07T08:38:00;3.90;99.90
59313;DHT22;45084;51.486;7.366;2024-03-07T08:40:31;4.00;99.90
59313;DHT22;45084;51.486;7.366;2024-03-07T08:43:04;4.00;99.90
59313;DHT22;45084;51.486;7.366;2024-03-07T08:45:33;4.20;99.90
59313;DHT22;45084;51.486;7.366;2024-03-07T08:48:02;4.30;99.90
59313;DHT22;45084;51.486;7.366;2024-03-07T08:50:36;4.40;99.90
59313;DHT22;45084;51.486;7.366;2024-03-07T08:53:04;4.40;99.90
59313;DHT22;45084;51.486;7.366;2024-03-07T08:55:31;4.50;99.90
59313;DHT22;45084;51.486;7.366;2024-03-07T08:57:58;4.50;99.90
59313;DHT22;45084;51.486;7.366;2024-03-07T09:00:25;4.50;99.90
59313;DHT22;45084;51.486;7.366;2024-03-07T09:02:54;4.80;99.90
59313;DHT22;45084;51.486;7.366;2024-03-07T09:05:22;4.70;99.90
59313;DHT22;45084;51.486;7.366;2024-03-07T09:07:50;4.90;99.90
59313;DHT22;45084;51.486;7.366;2024-03-07T09:10:16;4.80;99.90
59313;DHT22;45084;51.486;7.366;2024-03-07T09:12:44;5.00;99.90
59313;DHT22;45084;51.486;7.366;2024-03-07T09:15:14;5.20;99.90
59313;DHT22;45084;51.486;7.366;2024-03-07T09:17:44;5.40;99.90
59313;DHT22;45084;51.486;7.366;2024-03-07T09:20:14;5.40;99.90
59313;DHT22;45084;51.486;7.366;2024-03-07T09:22:46;5.30;99.90
59313;DHT22;45084;51.486;7.366;2024-03-07T09:25:18;5.40;99.90
59313;DHT22;45084;51.486;7.366;2024-03-07T09:27:44;5.60;99.90
59313;DHT22;45084;51.486;7.366;2024-03-07T09:30:10;5.50;99.90
59313;DHT22;45084;51.486;7.366;2024-03-07T09:32:42;5.70;99.90
59313;DHT22;45084;51.486;7.366;2024-03-07T09:35:09;5.90;99.90
59313;DHT22;45084;51.486;7.366;2024-03-07T09:37:42;6.00;99.90
59313;DHT22;45084;51.486;7.366;2024-03-07T09:40:09;6.00;99.90
59313;DHT22;45084;51.486;7.366;2024-03-07T09:42:47;6.00;99.90
59313;DHT22;45084;51.486;7.366;2024-03-07T09:45:15;6.00;99.90
59313;DHT22;45084;51.486;7.366;2024-03-07T09:47:46;6.10;99.90
59313;DHT22;45084;51.486;7.366;2024-03-07T09:50:17;6.20;99.90
59313;DHT22;45084;51.486;7.366;2024-03-07T09:52:46;6.40;99.90
59313;DHT22;45084;51.486;7.366;2024-03-07T09:55:16;6.60;99.90
59313;DHT22;45084;51.486;7.366;2024-03-07T09:57:47;6.80;99.90
59313;DHT22;45084;51.486;7.366;2024-03-07T10:00:20;6.90;99.90
59313;DHT22;45084;51.486;7.366;2024-03-07T10:03:07;6.80;99.90
59313;DHT22;45084;51.486;7.366;2024-03-07T10:05:39;6.80;99.90
59313;DHT22;45084;51.486;7.366;2024-03-07T10:08:07;6.90;99.90
59313;DHT22;45084;51.486;7.366;2024-03-07T10:10:34;7.00;99.90
59313;DHT22;45084;51.486;7.366;2024-03-07T10:13:03;6.70;99.90
59313;DHT22;45084;51.486;7.366;2024-03-07T10:15:30;6.90;99.90
59313;DHT22;45084;51.486;7.366;2024-03-07T10:18:00;7.00;99.90
59313;DHT22;45084;51.486;7.366;2024-03-07T10:20:29;7.00;99.90
59313;DHT22;45084;51.486;7.366;2024-03-07T10:22:58;7.00;99.90
59313;DHT22;45084;51.486;7.366;2024-03-07T10:25:27;7.00;99.90
59313;DHT22;45084;51.486;7.366;2024-03-07T10:27:56;7.00;99.90
59313;DHT22;45084;51.486;7.366;2024-03-07T10:30:24;7.10;99.90
59313;DHT22;45084;51.486;7.366;2024-03-07T10:32:58;7.20;99.90
59313;DHT22;45084;51.486;7.366;2024-03-07T10:35:29;7.30;99.90
59313;DHT22;45084;51.486;7.366;2024-03-07T10:37:56;7.20;99.90
59313;DHT22;45084;51.486;7.366;2024-03-07T10:40:27;7.30;99.90
59313;DHT22;45084;51.486;7.366;2024-03-07T10:42:59;7.40;99.90
59313;DHT22;45084;51.486;7.366;2024-03-07T10:45:29;7.50;99.90
59313;DHT22;45084;51.486;7.366;2024-03-07T10:47:57;7.50;99.90
59313;DHT22;45084;51.486;7.366;2024-03-07T10:59:21;7.90;99.90
59313;DHT22;45084;51.486;7.366;2024-03-07T11:04:49;7.60;99.90
59313;DHT22;45084;51.486;7.366;2024-03-07T11:07:20;7.50;99.90
59313;DHT22;45084;51.486;7.366;2024-03-07T11:09:49;7.70;99.90
59313;DHT22;45084;51.486;7.366;2024-03-07T11:12:24;7.90;99.90
59313;DHT22;45084;51.486;7.366;2024-03-07T11:14:53;7.90;99.90
59313;DHT22;45084;51.486;7.366;2024-03-07T11:17:23;8.00;99.90
59313;DHT22;45084;51.486;7.366;2024-03-07T11:19:50;7.90;99.90
59313;DHT22;45084;51.486;7.366;2024-03-07T11:22:36;7.90;99.90
59313;DHT22;45084;51.486;7.366;2024-03-07T11:25:07;8.00;99.90
59313;DHT22;45084;51.486;7.366;2024-03-07T11:27:40;8.10;99.90
59313;DHT22;45084;51.486;7.366;2024-03-07T11:30:17;8.20;99.90
59313;DHT22;45084;51.486;7.366;2024-03-07T11:32:46;8.50;99.90
59313;DHT22;45084;51.486;7.366;2024-03-07T11:35:17;8.50;99.90
59313;DHT22;45084;51.486;7.366;2024-03-07T11:38:05;8.70;99.90
59313;DHT22;45084;51.486;7.366;2024-03-07T11:43:06;8.90;99.90
59313;DHT22;45084;51.486;7.366;2024-03-07T11:45:37;9.20;99.90
59313;DHT22;45084;51.486;7.366;2024-03-07T11:48:13;9.60;99.90
59313;DHT22;45084;51.486;7.366;2024-03-07T11:50:42;9.70;99.90
59313;DHT22;45084;51.486;7.366;2024-03-07T11:53:09;9.50;99.90
59313;DHT22;45084;51.486;7.366;2024-03-07T11:55:37;9.20;99.90
59313;DHT22;45084;51.486;7.366;2024-03-07T11:58:22;9.10;99.90
59313;DHT22;45084;51.486;7.366;2024-03-07T12:00:51;9.00;99.90
59313;DHT22;45084;51.486;7.366;2024-03-07T12:03:19;8.40;99.90
59313;DHT22;45084;51.486;7.366;2024-03-07T12:05:49;8.40;99.90
59313;DHT22;45084;51.486;7.366;2024-03-07T12:08:22;8.20;99.90
59313;DHT22;45084;51.486;7.366;2024-03-07T12:10:48;8.30;99.90
59313;DHT22;45084;51.486;7.366;2024-03-07T12:13:20;8.40;99.90
59313;DHT22;45084;51.486;7.366;2024-03-07T12:15:46;8.20;99.90
59313;DHT22;45084;51.486;7.366;2024-03-07T12:18:19;8.10;99.90
59313;DHT22;45084;51.486;7.366;2024-03-07T12:20:47;8.00;99.90
59313;DHT22;45084;51.486;7.366;2024-03-07T12:23:45;7.90;99.90
59313;DHT22;45084;51.486;7.366;2024-03-07T12:26:13;7.80;99.90
59313;DHT22;45084;51.486;7.366;2024-03-07T12:28:52;8.00;99.90
59313;DHT22;45084;51.486;7.366;2024-03-07T12:31:19;8.20;99.90
59313;DHT22;45084;51.486;7.366;2024-03-07T12:33:51;8.60;99.90
59313;DHT22;45084;51.486;7.366;2024-03-07T12:36:16;8.80;99.90
59313;DHT22;45084;51.486;7.366;2024-03-07T12:38:44;8.90;99.90
59313;DHT22;45084;51.486;7.366;2024-03-07T12:41:10;8.80;99.90
59313;DHT22;45084;51.486;7.366;2024-03-07T12:43:42;8.70;99.90
59313;DHT22;45084;51.486;7.366;2024-03-07T12:46:10;8.70;99.90
59313;DHT22;45084;51.486;7.366;2024-03-07T12:48:43;8.80;99.90
59313;DHT22;45084;51.486;7.366;2024-03-07T12:51:10;9.10;99.90
59313;DHT22;45084;51.486;7.366;2024-03-07T12:53:37;9.10;99.90
59313;DHT22;45084;51.486;7.366;2024-03-07T12:56:04;9.10;99.90
59313;DHT22;45084;51.486;7.366;2024-03-07T12:58:33;9.00;99.90
59313;DHT22;45084;51.486;7.366;2024-03-07T13:01:00;9.00;99.90
59313;DHT22;45084;51.486;7.366;2024-03-07T13:03:29;9.00;99.90
59313;DHT22;45084;51.486;7.366;2024-03-07T13:05:57;8.80;99.90
59313;DHT22;45084;51.486;7.366;2024-03-07T13:08:28;8.60;99.90
59313;DHT22;45084;51.486;7.366;2024-03-07T13:11:03;8.70;99.90
59313;DHT22;45084;51.486;7.366;2024-03-07T13:13:30;8.80;99.90
59313;DHT22;45084;51.486;7.366;2024-03-07T13:15:57;8.80;99.90
59313;DHT22;45084;51.486;7.366;2024-03-07T13:18:24;8.80;99.90
59313;DHT22;45084;51.486;7.366;2024-03-07T13:20:50;9.00;99.90
59313;DHT22;45084;51.486;7.366;2024-03-07T13:23:15;9.10;99.90
59313;DHT22;45084;51.486;7.366;2024-03-07T13:25:42;9.20;99.90
59313;DHT22;45084;51.486;7.366;2024-03-07T13:28:14;9.00;99.90
59313;DHT22;45084;51.486;7.366;2024-03-07T13:30:46;8.90;99.90
59313;DHT22;45084;51.486;7.366;2024-03-07T13:33:17;8.90;99.90
59313;DHT22;45084;51.486;7.366;2024-03-07T13:35:44;8.90;99.90
59313;DHT22;45084;51.486;7.366;2024-03-07T13:38:13;8.90;99.90
59313;DHT22;45084;51.486;7.366;2024-03-07T13:40:44;8.90;99.90
59313;DHT22;45084;51.486;7.366;2024-03-07T13:43:10;9.00;99.90
59313;DHT22;45084;51.486;7.366;2024-03-07T13:45:48;8.80;99.90
59313;DHT22;45084;51.486;7.366;2024-03-07T13:48:15;8.60;99.90
59313;DHT22;45084;51.486;7.366;2024-03-07T13:50:43;8.40;99.90
59313;DHT22;45084;51.486;7.366;2024-03-07T13:53:14;8.40;99.90
59313;DHT22;45084;51.486;7.366;2024-03-07T14:01:59;8.50;99.90
59313;DHT22;45084;51.486;7.366;2024-03-07T14:08:01;8.90;99.90
59313;DHT22;45084;51.486;7.366;2024-03-07T14:11:26;8.60;99.90
59313;DHT22;45084;51.486;7.366;2024-03-07T14:26:37;9.10;99.90
59313;DHT22;45084;51.486;7.366;2024-03-07T14:32:01;8.90;99.90
59313;DHT22;45084;51.486;7.366;2024-03-07T14:37:09;9.00;99.90
59313;DHT22;45084;51.486;7.366;2024-03-07T14:39:37;8.90;99.90
59313;DHT22;45084;51.486;7.366;2024-03-07T14:42:07;8.80;99.90
59313;DHT22;45084;51.486;7.366;2024-03-07T14:44:43;8.90;99.90
59313;DHT22;45084;51.486;7.366;2024-03-07T14:47:12;8.90;99.90
59313;DHT22;45084;51.486;7.366;2024-03-07T14:49:41;8.90;99.90
59313;DHT22;45084;51.486;7.366;2024-03-07T14:52:08;8.80;99.90
59313;DHT22;45084;51.486;7.366;2024-03-07T14:54:39;8.70;99.90
59313;DHT22;45084;51.486;7.366;2024-03-07T14:57:08;8.70;99.90
59313;DHT22;45084;51.486;7.366;2024-03-07T14:59:37;8.70;99.90
59313;DHT22;45084;51.486;7.366;2024-03-07T15:02:05;8.80;99.90
59313;DHT22;45084;51.486;7.366;2024-03-07T15:04:40;8.80;99.90
59313;DHT22;45084;51.486;7.366;2024-03-07T15:07:09;8.90;99.90
59313;DHT22;45084;51.486;7.366;2024-03-07T15:09:35;8.70;99.90
59313;DHT22;45084;51.486;7.366;2024-03-07T15:12:03;8.50;99.90
59313;DHT22;45084;51.486;7.366;2024-03-07T15:14:33;8.30;99.90
59313;DHT22;45084;51.486;7.366;2024-03-07T15:17:00;8.30;99.90
59313;DHT22;45084;51.486;7.366;2024-03-07T15:19:27;8.20;99.90
59313;DHT22;45084;51.486;7.366;2024-03-07T15:21:58;8.20;99.90
59313;DHT22;45084;51.486;7.366;2024-03-07T15:24:25;8.20;99.90
59313;DHT22;45084;51.486;7.366;2024-03-07T15:26:52;8.20;99.90
59313;DHT22;45084;51.486;7.366;2024-03-07T15:29:21;8.10;99.90
59313;DHT22;45084;51.486;7.366;2024-03-07T15:31:52;8.20;99.90
59313;DHT22;45084;51.486;7.366;2024-03-07T15:34:21;8.30;99.90
59313;DHT22;45084;51.486;7.366;2024-03-07T15:36:59;8.20;99.90
59313;DHT22;45084;51.486;7.366;2024-03-07T15:39:28;8.10;99.90
59313;DHT22;45084;51.486;7.366;2024-03-07T15:41:56;8.20;99.90
59313;DHT22;45084;51.486;7.366;2024-03-07T15:44:23;8.20;99.90
59313;DHT22;45084;51.486;7.366;2024-03-07T15:46:53;8.20;99.90
59313;DHT22;45084;51.486;7.366;2024-03-07T15:49:25;8.30;99.90
59313;DHT22;45084;51.486;7.366;2024-03-07T15:51:52;8.20;99.90
59313;DHT22;45084;51.486;7.366;2024-03-07T15:54:21;8.30;99.90
59313;DHT22;45084;51.486;7.366;2024-03-07T15:56:51;8.20;99.90
59313;DHT22;45084;51.486;7.366;2024-03-07T15:59:19;8.20;99.90
59313;DHT22;45084;51.486;7.366;2024-03-07T16:01:48;8.20;99.90
59313;DHT22;45084;51.486;7.366;2024-03-07T16:04:20;8.30;99.90
59313;DHT22;45084;51.486;7.366;2024-03-07T16:06:49;8.30;99.90
59313;DHT22;45084;51.486;7.366;2024-03-07T16:09:16;8.30;99.90
59313;DHT22;45084;51.486;7.366;2024-03-07T16:11:49;8.30;99.90
59313;DHT22;45084;51.486;7.366;2024-03-07T16:14:16;8.20;99.90
59313;DHT22;45084;51.486;7.366;2024-03-07T16:16:44;8.20;99.90
59313;DHT22;45084;51.486;7.366;2024-03-07T16:19:13;8.10;99.90
59313;DHT22;45084;51.486;7.366;2024-03-07T16:21:44;8.10;99.90
59313;DHT22;45084;51.486;7.366;2024-03-07T16:24:11;7.90;99.90
59313;DHT22;45084;51.486;7.366;2024-03-07T16:26:38;7.70;99.90
59313;DHT22;45084;51.486;7.366;2024-03-07T16:29:07;7.60;99.90
59313;DHT22;45084;51.486;7.366;2024-03-07T16:31:32;7.70;99.90
59313;DHT22;45084;51.486;7.366;2024-03-07T16:34:01;7.70;99.90